チューリッヒ の空港の天気 - METARとTAF

チューリヒ国際空港 ( LSZH / ZRH ) - スイス チューリッヒ
飛行場実況気象(Metar)
観測時間09/23 12:50 CEST (09/23 10:50 UTC)
風向・風速北西 2m/s
視程10km以上
天気現象
なし
気温18℃
湿度64%
気圧1022hPa
METARLSZH 231050Z 32003KT 250V060 CAVOK 18/11 Q1022 NOSIG
過去の天気等 Google飛行場航空写真 Wunderground天気予報

過去48時間のMETAR

飛行場予報(TAF)
発表時間: 9/23 11:34 CEST (9/23 09:34 UTC)
予報対象時間: 23日11時 CEST ~ 24日17時 CEST
風向・風速不定 2m/s
視程10km以上
なし
23日13時 CEST ~ 23日20時 CEST に一時的に
風向・風速北東 3m/s
視程10km以上
少しの雲 雲底高度 1,370m
23日18時 CEST ~ 23日21時 CEST に徐々に
視程10km以上
全天の4割程度の雲 雲底高度 1,370m
24日2時 CEST ~ 24日11時 CEST に一時的に
天気現象しゅう雨
24日5時 CEST ~ 24日10時 CEST に 確率 30% で一時的に
視程3,000m
天気現象もや
全天の8割程度の雲 雲底高度 370m
24日10時 CEST ~ 24日13時 CEST に徐々に
風向・風速東北東 3m/s
TAF AMD LSZH 230934Z 2309/2415 VRB03KT CAVOK TX20/2314Z TN09/2404Z TX19/2414Z
TEMPO 2311/2318 05005KT 9999 FEW045
BECMG 2316/2319 9999 SCT045
TEMPO 2400/2409 SHRA
PROB30 TEMPO 2403/2408 3000 BR BKN012
BECMG 2408/2411 06005KT